sensor_id;sensor_type;location;lat;lon;timestamp;temperature;humidity
36352;DHT22;22382;44.768;17.206;2023-07-22T00:02:02;20.60;99.90
36352;DHT22;22382;44.768;17.206;2023-07-22T00:04:29;20.60;99.90
36352;DHT22;22382;44.768;17.206;2023-07-22T00:06:56;20.60;99.90
36352;DHT22;22382;44.768;17.206;2023-07-22T00:09:23;20.60;99.90
36352;DHT22;22382;44.768;17.206;2023-07-22T00:11:50;20.60;99.90
36352;DHT22;22382;44.768;17.206;2023-07-22T00:14:17;20.60;99.90
36352;DHT22;22382;44.768;17.206;2023-07-22T00:16:44;20.60;99.90
36352;DHT22;22382;44.768;17.206;2023-07-22T00:19:12;20.60;99.90
36352;DHT22;22382;44.768;17.206;2023-07-22T00:21:41;20.60;99.90
36352;DHT22;22382;44.768;17.206;2023-07-22T00:24:08;20.50;99.90
36352;DHT22;22382;44.768;17.206;2023-07-22T00:26:36;20.60;99.90
36352;DHT22;22382;44.768;17.206;2023-07-22T00:29:03;20.70;99.90
36352;DHT22;22382;44.768;17.206;2023-07-22T00:31:31;20.60;99.90
36352;DHT22;22382;44.768;17.206;2023-07-22T00:33:58;20.70;99.90
36352;DHT22;22382;44.768;17.206;2023-07-22T00:36:25;20.60;99.90
36352;DHT22;22382;44.768;17.206;2023-07-22T00:38:53;20.60;99.90
36352;DHT22;22382;44.768;17.206;2023-07-22T00:41:20;20.60;99.90
36352;DHT22;22382;44.768;17.206;2023-07-22T00:43:47;20.60;99.90
36352;DHT22;22382;44.768;17.206;2023-07-22T00:46:14;20.60;99.90
36352;DHT22;22382;44.768;17.206;2023-07-22T00:48:41;20.60;99.90
36352;DHT22;22382;44.768;17.206;2023-07-22T00:51:08;20.60;99.90
36352;DHT22;22382;44.768;17.206;2023-07-22T00:53:36;20.60;99.90
36352;DHT22;22382;44.768;17.206;2023-07-22T00:56:03;20.50;99.90
36352;DHT22;22382;44.768;17.206;2023-07-22T00:58:31;20.50;99.90
36352;DHT22;22382;44.768;17.206;2023-07-22T01:00:58;20.40;99.90
36352;DHT22;22382;44.768;17.206;2023-07-22T01:03:25;20.40;99.90
36352;DHT22;22382;44.768;17.206;2023-07-22T01:05:53;20.40;99.90
36352;DHT22;22382;44.768;17.206;2023-07-22T01:08:20;20.40;99.90
36352;DHT22;22382;44.768;17.206;2023-07-22T01:10:47;20.40;99.90
36352;DHT22;22382;44.768;17.206;2023-07-22T01:13:15;20.40;99.90
36352;DHT22;22382;44.768;17.206;2023-07-22T01:15:42;20.40;99.90
36352;DHT22;22382;44.768;17.206;2023-07-22T01:18:09;20.50;99.90
36352;DHT22;22382;44.768;17.206;2023-07-22T01:20:36;20.50;99.90
36352;DHT22;22382;44.768;17.206;2023-07-22T01:23:04;20.50;99.90
36352;DHT22;22382;44.768;17.206;2023-07-22T01:25:31;20.50;99.90
36352;DHT22;22382;44.768;17.206;2023-07-22T01:27:58;20.40;99.90
36352;DHT22;22382;44.768;17.206;2023-07-22T01:30:25;20.50;99.90
36352;DHT22;22382;44.768;17.206;2023-07-22T01:32:54;20.40;99.90
36352;DHT22;22382;44.768;17.206;2023-07-22T01:35:21;20.40;99.90
36352;DHT22;22382;44.768;17.206;2023-07-22T01:37:48;20.30;99.90
36352;DHT22;22382;44.768;17.206;2023-07-22T01:40:17;20.30;99.90
36352;DHT22;22382;44.768;17.206;2023-07-22T01:42:44;20.30;99.90
36352;DHT22;22382;44.768;17.206;2023-07-22T01:45:11;20.30;99.90
36352;DHT22;22382;44.768;17.206;2023-07-22T01:47:38;20.30;99.90
36352;DHT22;22382;44.768;17.206;2023-07-22T01:50:07;20.20;99.90
36352;DHT22;22382;44.768;17.206;2023-07-22T01:52:34;20.20;99.90
36352;DHT22;22382;44.768;17.206;2023-07-22T01:55:01;20.20;99.90
36352;DHT22;22382;44.768;17.206;2023-07-22T01:57:32;20.20;99.90
36352;DHT22;22382;44.768;17.206;2023-07-22T01:59:59;20.20;99.90
36352;DHT22;22382;44.768;17.206;2023-07-22T02:02:26;20.30;99.90
36352;DHT22;22382;44.768;17.206;2023-07-22T02:04:53;20.30;99.90
36352;DHT22;22382;44.768;17.206;2023-07-22T02:07:20;20.30;99.90
36352;DHT22;22382;44.768;17.206;2023-07-22T02:09:48;20.30;99.90
36352;DHT22;22382;44.768;17.206;2023-07-22T02:12:18;20.30;99.90
36352;DHT22;22382;44.768;17.206;2023-07-22T02:14:46;20.20;99.90
36352;DHT22;22382;44.768;17.206;2023-07-22T02:17:13;20.30;99.90
36352;DHT22;22382;44.768;17.206;2023-07-22T02:19:40;20.30;99.90
36352;DHT22;22382;44.768;17.206;2023-07-22T02:22:07;20.30;99.90
36352;DHT22;22382;44.768;17.206;2023-07-22T02:24:34;20.30;99.90
36352;DHT22;22382;44.768;17.206;2023-07-22T02:27:01;20.40;99.90
36352;DHT22;22382;44.768;17.206;2023-07-22T02:29:28;20.40;99.90
36352;DHT22;22382;44.768;17.206;2023-07-22T02:31:57;20.40;99.90
36352;DHT22;22382;44.768;17.206;2023-07-22T02:34:25;20.40;99.90
36352;DHT22;22382;44.768;17.206;2023-07-22T02:36:52;20.30;99.90
36352;DHT22;22382;44.768;17.206;2023-07-22T02:39:19;20.40;99.90
36352;DHT22;22382;44.768;17.206;2023-07-22T02:41:46;20.40;99.90
36352;DHT22;22382;44.768;17.206;2023-07-22T02:44:13;20.30;99.90
36352;DHT22;22382;44.768;17.206;2023-07-22T02:46:40;20.20;99.90
36352;DHT22;22382;44.768;17.206;2023-07-22T02:49:08;20.20;99.90
36352;DHT22;22382;44.768;17.206;2023-07-22T02:51:35;20.10;99.90
36352;DHT22;22382;44.768;17.206;2023-07-22T02:54:02;20.10;99.90
36352;DHT22;22382;44.768;17.206;2023-07-22T02:56:30;20.00;99.90
36352;DHT22;22382;44.768;17.206;2023-07-22T02:58:57;20.00;99.90
36352;DHT22;22382;44.768;17.206;2023-07-22T03:01:24;20.00;99.90
36352;DHT22;22382;44.768;17.206;2023-07-22T03:03:51;19.90;99.90
36352;DHT22;22382;44.768;17.206;2023-07-22T03:06:19;19.90;99.90
36352;DHT22;22382;44.768;17.206;2023-07-22T03:08:46;19.90;99.90
36352;DHT22;22382;44.768;17.206;2023-07-22T03:11:13;19.90;99.90
36352;DHT22;22382;44.768;17.206;2023-07-22T03:13:40;19.90;99.90
36352;DHT22;22382;44.768;17.206;2023-07-22T03:16:07;19.90;99.90
36352;DHT22;22382;44.768;17.206;2023-07-22T03:18:35;19.90;99.90
36352;DHT22;22382;44.768;17.206;2023-07-22T03:21:02;19.90;99.90
36352;DHT22;22382;44.768;17.206;2023-07-22T03:23:29;19.80;99.90
36352;DHT22;22382;44.768;17.206;2023-07-22T03:25:56;19.80;99.90
36352;DHT22;22382;44.768;17.206;2023-07-22T03:28:23;19.80;99.90
36352;DHT22;22382;44.768;17.206;2023-07-22T03:30:52;19.70;99.90
36352;DHT22;22382;44.768;17.206;2023-07-22T03:33:20;19.80;99.90
36352;DHT22;22382;44.768;17.206;2023-07-22T03:35:47;19.80;99.90
36352;DHT22;22382;44.768;17.206;2023-07-22T03:38:14;19.80;99.90
36352;DHT22;22382;44.768;17.206;2023-07-22T03:40:41;19.80;99.90
36352;DHT22;22382;44.768;17.206;2023-07-22T03:43:08;19.80;99.90
36352;DHT22;22382;44.768;17.206;2023-07-22T03:45:35;19.90;99.90
36352;DHT22;22382;44.768;17.206;2023-07-22T03:48:02;19.90;99.90
36352;DHT22;22382;44.768;17.206;2023-07-22T03:50:30;20.00;99.90
36352;DHT22;22382;44.768;17.206;2023-07-22T03:52:56;20.00;99.90
36352;DHT22;22382;44.768;17.206;2023-07-22T03:55:24;20.00;99.90
36352;DHT22;22382;44.768;17.206;2023-07-22T03:57:51;20.00;99.90
36352;DHT22;22382;44.768;17.206;2023-07-22T04:00:18;20.10;99.90
36352;DHT22;22382;44.768;17.206;2023-07-22T04:02:45;20.20;99.90
36352;DHT22;22382;44.768;17.206;2023-07-22T04:05:12;20.20;99.90
36352;DHT22;22382;44.768;17.206;2023-07-22T04:07:39;20.20;99.90
36352;DHT22;22382;44.768;17.206;2023-07-22T04:10:06;20.20;99.90
36352;DHT22;22382;44.768;17.206;2023-07-22T04:12:33;20.20;99.90
36352;DHT22;22382;44.768;17.206;2023-07-22T04:15:01;20.20;99.90
36352;DHT22;22382;44.768;17.206;2023-07-22T04:17:28;20.20;99.90
36352;DHT22;22382;44.768;17.206;2023-07-22T04:19:55;20.20;99.90
36352;DHT22;22382;44.768;17.206;2023-07-22T04:22:22;20.30;99.90
36352;DHT22;22382;44.768;17.206;2023-07-22T04:24:49;20.30;99.90
36352;DHT22;22382;44.768;17.206;2023-07-22T04:27:16;20.30;99.90
36352;DHT22;22382;44.768;17.206;2023-07-22T04:29:44;20.20;99.90
36352;DHT22;22382;44.768;17.206;2023-07-22T04:32:11;20.20;99.90
36352;DHT22;22382;44.768;17.206;2023-07-22T04:34:38;20.20;99.90
36352;DHT22;22382;44.768;17.206;2023-07-22T04:37:06;20.20;99.90
36352;DHT22;22382;44.768;17.206;2023-07-22T04:39:33;20.20;99.90
36352;DHT22;22382;44.768;17.206;2023-07-22T04:42:01;20.30;99.90
36352;DHT22;22382;44.768;17.206;2023-07-22T04:44:28;20.30;99.90
36352;DHT22;22382;44.768;17.206;2023-07-22T04:46:55;20.30;99.90
36352;DHT22;22382;44.768;17.206;2023-07-22T04:49:22;20.30;99.90
36352;DHT22;22382;44.768;17.206;2023-07-22T04:51:49;20.30;99.90
36352;DHT22;22382;44.768;17.206;2023-07-22T04:54:17;20.40;99.90
36352;DHT22;22382;44.768;17.206;2023-07-22T04:56:45;20.40;99.90
36352;DHT22;22382;44.768;17.206;2023-07-22T04:59:12;20.40;99.90
36352;DHT22;22382;44.768;17.206;2023-07-22T05:01:41;20.40;99.90
36352;DHT22;22382;44.768;17.206;2023-07-22T05:04:08;20.10;99.90
36352;DHT22;22382;44.768;17.206;2023-07-22T05:06:35;20.00;99.90
36352;DHT22;22382;44.768;17.206;2023-07-22T05:09:03;19.90;99.90
36352;DHT22;22382;44.768;17.206;2023-07-22T05:11:30;19.90;99.90
36352;DHT22;22382;44.768;17.206;2023-07-22T05:13:57;20.10;99.90
36352;DHT22;22382;44.768;17.206;2023-07-22T05:16:24;20.00;99.90
36352;DHT22;22382;44.768;17.206;2023-07-22T05:18:52;20.20;99.90
36352;DHT22;22382;44.768;17.206;2023-07-22T05:21:19;20.40;99.90
36352;DHT22;22382;44.768;17.206;2023-07-22T05:23:46;20.40;99.90
36352;DHT22;22382;44.768;17.206;2023-07-22T05:26:14;20.60;99.90
36352;DHT22;22382;44.768;17.206;2023-07-22T05:28:41;20.70;99.90
36352;DHT22;22382;44.768;17.206;2023-07-22T05:31:08;20.90;99.90
36352;DHT22;22382;44.768;17.206;2023-07-22T05:33:35;21.20;99.90
36352;DHT22;22382;44.768;17.206;2023-07-22T05:36:05;21.60;99.90
36352;DHT22;22382;44.768;17.206;2023-07-22T05:38:32;21.90;99.90
36352;DHT22;22382;44.768;17.206;2023-07-22T05:40:59;22.30;99.90
36352;DHT22;22382;44.768;17.206;2023-07-22T05:43:27;22.50;99.90
36352;DHT22;22382;44.768;17.206;2023-07-22T05:45:54;22.70;99.90
36352;DHT22;22382;44.768;17.206;2023-07-22T05:48:21;22.80;99.90
36352;DHT22;22382;44.768;17.206;2023-07-22T05:50:48;22.80;99.90
36352;DHT22;22382;44.768;17.206;2023-07-22T05:53:15;23.10;99.90
36352;DHT22;22382;44.768;17.206;2023-07-22T05:55:43;23.50;99.90
36352;DHT22;22382;44.768;17.206;2023-07-22T05:58:16;24.00;99.90
36352;DHT22;22382;44.768;17.206;2023-07-22T06:00:44;24.20;99.90
36352;DHT22;22382;44.768;17.206;2023-07-22T06:03:12;24.50;99.90
36352;DHT22;22382;44.768;17.206;2023-07-22T06:05:39;24.10;99.90
36352;DHT22;22382;44.768;17.206;2023-07-22T06:08:07;23.70;99.90
36352;DHT22;22382;44.768;17.206;2023-07-22T06:10:34;24.20;99.90
36352;DHT22;22382;44.768;17.206;2023-07-22T06:13:01;24.30;99.90
36352;DHT22;22382;44.768;17.206;2023-07-22T06:15:28;24.20;99.90
36352;DHT22;22382;44.768;17.206;2023-07-22T06:17:55;23.70;99.90
36352;DHT22;22382;44.768;17.206;2023-07-22T06:20:22;23.50;99.90
36352;DHT22;22382;44.768;17.206;2023-07-22T06:22:49;23.60;99.90
36352;DHT22;22382;44.768;17.206;2023-07-22T06:25:17;24.00;99.90
36352;DHT22;22382;44.768;17.206;2023-07-22T06:27:44;24.10;99.90
36352;DHT22;22382;44.768;17.206;2023-07-22T06:30:11;24.50;99.90
36352;DHT22;22382;44.768;17.206;2023-07-22T06:32:38;25.10;99.90
36352;DHT22;22382;44.768;17.206;2023-07-22T06:35:06;24.90;99.90
36352;DHT22;22382;44.768;17.206;2023-07-22T06:37:33;25.00;99.90
36352;DHT22;22382;44.768;17.206;2023-07-22T06:40:00;25.30;99.90
36352;DHT22;22382;44.768;17.206;2023-07-22T06:42:29;25.50;99.90
36352;DHT22;22382;44.768;17.206;2023-07-22T06:44:56;25.50;99.90
36352;DHT22;22382;44.768;17.206;2023-07-22T06:47:23;25.50;99.90
36352;DHT22;22382;44.768;17.206;2023-07-22T06:49:50;25.90;99.90
36352;DHT22;22382;44.768;17.206;2023-07-22T06:52:17;26.30;99.90
36352;DHT22;22382;44.768;17.206;2023-07-22T06:54:44;26.40;99.90
36352;DHT22;22382;44.768;17.206;2023-07-22T06:57:11;26.30;99.90
36352;DHT22;22382;44.768;17.206;2023-07-22T06:59:38;26.30;99.90
36352;DHT22;22382;44.768;17.206;2023-07-22T07:02:05;26.30;99.90
36352;DHT22;22382;44.768;17.206;2023-07-22T07:04:33;26.00;99.90
36352;DHT22;22382;44.768;17.206;2023-07-22T07:07:00;25.90;99.90
36352;DHT22;22382;44.768;17.206;2023-07-22T07:09:27;26.10;99.90
36352;DHT22;22382;44.768;17.206;2023-07-22T07:11:54;26.40;99.90
36352;DHT22;22382;44.768;17.206;2023-07-22T07:14:24;26.60;99.90
36352;DHT22;22382;44.768;17.206;2023-07-22T07:16:51;25.90;99.90
36352;DHT22;22382;44.768;17.206;2023-07-22T07:19:18;25.80;99.90
36352;DHT22;22382;44.768;17.206;2023-07-22T07:21:45;25.90;99.90
36352;DHT22;22382;44.768;17.206;2023-07-22T07:24:12;26.30;99.90
36352;DHT22;22382;44.768;17.206;2023-07-22T07:26:40;26.60;99.90
36352;DHT22;22382;44.768;17.206;2023-07-22T07:29:07;26.90;99.90
36352;DHT22;22382;44.768;17.206;2023-07-22T07:31:34;27.00;99.90
36352;DHT22;22382;44.768;17.206;2023-07-22T07:34:01;27.00;99.90
36352;DHT22;22382;44.768;17.206;2023-07-22T07:36:28;26.80;99.90
36352;DHT22;22382;44.768;17.206;2023-07-22T07:38:56;26.90;99.90
36352;DHT22;22382;44.768;17.206;2023-07-22T07:41:23;26.70;99.90
36352;DHT22;22382;44.768;17.206;2023-07-22T07:43:50;27.00;99.90
36352;DHT22;22382;44.768;17.206;2023-07-22T07:46:18;27.40;99.90
36352;DHT22;22382;44.768;17.206;2023-07-22T07:48:48;27.80;99.90
36352;DHT22;22382;44.768;17.206;2023-07-22T07:51:16;28.00;99.90
36352;DHT22;22382;44.768;17.206;2023-07-22T07:53:43;27.90;99.90
36352;DHT22;22382;44.768;17.206;2023-07-22T07:56:11;27.80;99.90
36352;DHT22;22382;44.768;17.206;2023-07-22T07:58:38;28.10;99.90
36352;DHT22;22382;44.768;17.206;2023-07-22T08:01:06;27.60;99.90
36352;DHT22;22382;44.768;17.206;2023-07-22T08:03:34;27.50;99.90
36352;DHT22;22382;44.768;17.206;2023-07-22T08:06:02;27.50;99.90
36352;DHT22;22382;44.768;17.206;2023-07-22T08:08:29;27.80;99.90
36352;DHT22;22382;44.768;17.206;2023-07-22T08:10:57;27.90;99.90
36352;DHT22;22382;44.768;17.206;2023-07-22T08:13:24;28.10;99.90
36352;DHT22;22382;44.768;17.206;2023-07-22T08:15:51;28.10;99.90
36352;DHT22;22382;44.768;17.206;2023-07-22T08:18:18;27.90;99.90
36352;DHT22;22382;44.768;17.206;2023-07-22T08:20:45;27.90;99.90
36352;DHT22;22382;44.768;17.206;2023-07-22T08:23:14;28.10;99.90
36352;DHT22;22382;44.768;17.206;2023-07-22T08:25:41;28.20;99.90
36352;DHT22;22382;44.768;17.206;2023-07-22T08:28:08;28.00;99.90
36352;DHT22;22382;44.768;17.206;2023-07-22T08:30:35;28.20;99.90
36352;DHT22;22382;44.768;17.206;2023-07-22T08:33:02;27.30;99.90
36352;DHT22;22382;44.768;17.206;2023-07-22T08:35:29;27.10;99.90
36352;DHT22;22382;44.768;17.206;2023-07-22T08:38:00;26.80;99.90
36352;DHT22;22382;44.768;17.206;2023-07-22T08:40:27;26.30;99.90
36352;DHT22;22382;44.768;17.206;2023-07-22T08:42:54;26.30;99.90
36352;DHT22;22382;44.768;17.206;2023-07-22T08:45:22;26.30;99.90
36352;DHT22;22382;44.768;17.206;2023-07-22T08:47:53;26.40;99.90
36352;DHT22;22382;44.768;17.206;2023-07-22T08:50:21;26.50;99.90
36352;DHT22;22382;44.768;17.206;2023-07-22T08:52:51;26.70;99.90
36352;DHT22;22382;44.768;17.206;2023-07-22T08:55:19;27.10;99.90
36352;DHT22;22382;44.768;17.206;2023-07-22T08:57:46;27.60;99.90
36352;DHT22;22382;44.768;17.206;2023-07-22T09:00:15;27.90;99.90
36352;DHT22;22382;44.768;17.206;2023-07-22T09:02:43;27.70;99.90
36352;DHT22;22382;44.768;17.206;2023-07-22T09:05:10;27.30;99.90
36352;DHT22;22382;44.768;17.206;2023-07-22T09:07:38;27.10;99.90
36352;DHT22;22382;44.768;17.206;2023-07-22T09:10:06;26.60;99.90
36352;DHT22;22382;44.768;17.206;2023-07-22T09:12:35;26.40;99.90
36352;DHT22;22382;44.768;17.206;2023-07-22T09:15:10;26.30;99.90
36352;DHT22;22382;44.768;17.206;2023-07-22T09:17:41;26.30;99.90
36352;DHT22;22382;44.768;17.206;2023-07-22T09:20:08;26.30;99.90
36352;DHT22;22382;44.768;17.206;2023-07-22T09:22:38;26.60;99.90
36352;DHT22;22382;44.768;17.206;2023-07-22T09:25:19;26.70;99.90
36352;DHT22;22382;44.768;17.206;2023-07-22T09:27:47;27.00;99.90
36352;DHT22;22382;44.768;17.206;2023-07-22T09:30:28;26.80;99.90
36352;DHT22;22382;44.768;17.206;2023-07-22T09:32:56;26.80;99.90
36352;DHT22;22382;44.768;17.206;2023-07-22T09:35:25;26.50;99.90
36352;DHT22;22382;44.768;17.206;2023-07-22T09:37:54;26.70;99.90
36352;DHT22;22382;44.768;17.206;2023-07-22T09:40:22;26.80;99.90
36352;DHT22;22382;44.768;17.206;2023-07-22T09:42:50;26.50;99.90
36352;DHT22;22382;44.768;17.206;2023-07-22T09:45:21;26.50;99.90
36352;DHT22;22382;44.768;17.206;2023-07-22T09:47:52;27.00;99.90
36352;DHT22;22382;44.768;17.206;2023-07-22T09:50:22;27.00;99.90
36352;DHT22;22382;44.768;17.206;2023-07-22T09:55:21;27.30;99.90
36352;DHT22;22382;44.768;17.206;2023-07-22T09:57:52;27.70;99.90
36352;DHT22;22382;44.768;17.206;2023-07-22T10:00:24;28.00;99.90
36352;DHT22;22382;44.768;17.206;2023-07-22T10:02:55;28.10;99.90
36352;DHT22;22382;44.768;17.206;2023-07-22T10:05:25;28.20;99.90
36352;DHT22;22382;44.768;17.206;2023-07-22T10:07:57;28.30;99.90
36352;DHT22;22382;44.768;17.206;2023-07-22T10:10:26;28.30;99.10
36352;DHT22;22382;44.768;17.206;2023-07-22T10:12:56;28.00;99.10
36352;DHT22;22382;44.768;17.206;2023-07-22T10:15:28;27.70;99.80
36352;DHT22;22382;44.768;17.206;2023-07-22T10:17:57;27.80;99.90
36352;DHT22;22382;44.768;17.206;2023-07-22T10:20:29;27.70;99.90
36352;DHT22;22382;44.768;17.206;2023-07-22T10:22:58;27.70;99.90
36352;DHT22;22382;44.768;17.206;2023-07-22T10:25:26;27.70;99.90
36352;DHT22;22382;44.768;17.206;2023-07-22T10:27:53;28.10;99.90
36352;DHT22;22382;44.768;17.206;2023-07-22T10:30:20;28.80;98.60
36352;DHT22;22382;44.768;17.206;2023-07-22T10:32:53;28.90;98.00
36352;DHT22;22382;44.768;17.206;2023-07-22T10:35:22;28.70;97.90
36352;DHT22;22382;44.768;17.206;2023-07-22T10:37:52;28.50;97.00
36352;DHT22;22382;44.768;17.206;2023-07-22T10:40:25;28.00;98.00
36352;DHT22;22382;44.768;17.206;2023-07-22T10:43:00;28.10;98.20
36352;DHT22;22382;44.768;17.206;2023-07-22T10:45:33;28.30;98.30
36352;DHT22;22382;44.768;17.206;2023-07-22T10:48:02;28.00;98.40
36352;DHT22;22382;44.768;17.206;2023-07-22T10:50:51;28.10;98.30
36352;DHT22;22382;44.768;17.206;2023-07-22T10:56:07;28.00;98.80
36352;DHT22;22382;44.768;17.206;2023-07-22T11:11:54;28.50;99.10
36352;DHT22;22382;44.768;17.206;2023-07-22T11:14:24;28.40;99.40
36352;DHT22;22382;44.768;17.206;2023-07-22T11:16:51;28.40;98.90
36352;DHT22;22382;44.768;17.206;2023-07-22T11:19:21;28.60;99.60
36352;DHT22;22382;44.768;17.206;2023-07-22T11:21:49;28.80;98.30
36352;DHT22;22382;44.768;17.206;2023-07-22T11:24:16;28.70;98.50
36352;DHT22;22382;44.768;17.206;2023-07-22T11:26:44;28.80;98.20
36352;DHT22;22382;44.768;17.206;2023-07-22T11:29:13;29.00;97.60
36352;DHT22;22382;44.768;17.206;2023-07-22T11:31:41;28.90;98.10
36352;DHT22;22382;44.768;17.206;2023-07-22T11:34:13;28.90;98.10
36352;DHT22;22382;44.768;17.206;2023-07-22T11:36:40;28.90;98.10
36352;DHT22;22382;44.768;17.206;2023-07-22T11:39:09;28.70;98.40
36352;DHT22;22382;44.768;17.206;2023-07-22T11:41:36;28.50;98.80
36352;DHT22;22382;44.768;17.206;2023-07-22T11:44:04;28.80;98.70
36352;DHT22;22382;44.768;17.206;2023-07-22T11:46:46;29.00;98.30
36352;DHT22;22382;44.768;17.206;2023-07-22T11:49:21;29.60;97.20
36352;DHT22;22382;44.768;17.206;2023-07-22T11:51:48;30.00;96.30
36352;DHT22;22382;44.768;17.206;2023-07-22T11:54:17;29.60;96.80
36352;DHT22;22382;44.768;17.206;2023-07-22T11:56:44;29.40;96.80
36352;DHT22;22382;44.768;17.206;2023-07-22T11:59:11;29.10;96.70
36352;DHT22;22382;44.768;17.206;2023-07-22T12:01:38;28.80;97.40
36352;DHT22;22382;44.768;17.206;2023-07-22T12:04:12;28.80;97.50
36352;DHT22;22382;44.768;17.206;2023-07-22T12:06:40;29.20;97.50
36352;DHT22;22382;44.768;17.206;2023-07-22T12:09:08;29.50;96.60
36352;DHT22;22382;44.768;17.206;2023-07-22T12:11:36;29.80;96.60
36352;DHT22;22382;44.768;17.206;2023-07-22T12:16:34;30.70;95.40
36352;DHT22;22382;44.768;17.206;2023-07-22T12:19:04;30.60;94.80
36352;DHT22;22382;44.768;17.206;2023-07-22T12:21:32;29.70;95.50
36352;DHT22;22382;44.768;17.206;2023-07-22T12:23:59;28.80;96.70
36352;DHT22;22382;44.768;17.206;2023-07-22T12:26:28;28.70;97.80
36352;DHT22;22382;44.768;17.206;2023-07-22T12:28:55;28.60;97.60
36352;DHT22;22382;44.768;17.206;2023-07-22T12:31:22;28.60;97.80
36352;DHT22;22382;44.768;17.206;2023-07-22T12:33:49;28.80;97.50
36352;DHT22;22382;44.768;17.206;2023-07-22T12:36:16;29.00;97.30
36352;DHT22;22382;44.768;17.206;2023-07-22T12:38:43;29.50;97.20
36352;DHT22;22382;44.768;17.206;2023-07-22T12:41:10;29.70;97.00
36352;DHT22;22382;44.768;17.206;2023-07-22T12:43:37;29.60;96.00
36352;DHT22;22382;44.768;17.206;2023-07-22T12:46:04;29.30;96.70
36352;DHT22;22382;44.768;17.206;2023-07-22T12:48:31;29.00;97.10
36352;DHT22;22382;44.768;17.206;2023-07-22T12:50:58;28.50;97.60
36352;DHT22;22382;44.768;17.206;2023-07-22T12:53:26;28.60;98.50
36352;DHT22;22382;44.768;17.206;2023-07-22T12:55:55;28.90;98.40
36352;DHT22;22382;44.768;17.206;2023-07-22T12:58:22;28.90;98.00
36352;DHT22;22382;44.768;17.206;2023-07-22T13:00:50;28.90;97.40
36352;DHT22;22382;44.768;17.206;2023-07-22T13:03:17;28.90;97.80
36352;DHT22;22382;44.768;17.206;2023-07-22T13:05:44;29.40;97.10
36352;DHT22;22382;44.768;17.206;2023-07-22T13:08:15;29.60;96.90
36352;DHT22;22382;44.768;17.206;2023-07-22T13:10:42;29.20;97.30
36352;DHT22;22382;44.768;17.206;2023-07-22T13:13:11;29.30;97.70
36352;DHT22;22382;44.768;17.206;2023-07-22T13:15:38;29.50;97.00
36352;DHT22;22382;44.768;17.206;2023-07-22T13:18:05;29.60;97.20
36352;DHT22;22382;44.768;17.206;2023-07-22T13:20:33;29.30;97.60
36352;DHT22;22382;44.768;17.206;2023-07-22T13:23:00;29.80;97.00
36352;DHT22;22382;44.768;17.206;2023-07-22T13:25:27;29.70;97.00
36352;DHT22;22382;44.768;17.206;2023-07-22T13:27:54;29.70;96.80
36352;DHT22;22382;44.768;17.206;2023-07-22T13:30:22;29.40;96.90
36352;DHT22;22382;44.768;17.206;2023-07-22T13:32:49;29.80;96.80
36352;DHT22;22382;44.768;17.206;2023-07-22T13:35:16;30.00;96.60
36352;DHT22;22382;44.768;17.206;2023-07-22T13:37:43;30.10;97.00
36352;DHT22;22382;44.768;17.206;2023-07-22T13:40:11;29.90;96.40
36352;DHT22;22382;44.768;17.206;2023-07-22T13:42:39;29.90;96.10
36352;DHT22;22382;44.768;17.206;2023-07-22T13:45:06;29.60;96.60
36352;DHT22;22382;44.768;17.206;2023-07-22T13:47:34;29.70;96.40
36352;DHT22;22382;44.768;17.206;2023-07-22T13:50:01;29.90;96.50
36352;DHT22;22382;44.768;17.206;2023-07-22T13:52:28;30.10;95.90
36352;DHT22;22382;44.768;17.206;2023-07-22T13:54:55;30.20;95.50
36352;DHT22;22382;44.768;17.206;2023-07-22T13:57:22;30.60;95.40
36352;DHT22;22382;44.768;17.206;2023-07-22T13:59:49;30.60;95.10
36352;DHT22;22382;44.768;17.206;2023-07-22T14:02:16;30.60;95.10
36352;DHT22;22382;44.768;17.206;2023-07-22T14:04:44;30.50;94.00
36352;DHT22;22382;44.768;17.206;2023-07-22T14:07:12;30.40;94.30
36352;DHT22;22382;44.768;17.206;2023-07-22T14:09:40;30.30;94.80
36352;DHT22;22382;44.768;17.206;2023-07-22T14:12:08;30.10;95.30
36352;DHT22;22382;44.768;17.206;2023-07-22T14:14:35;30.00;96.50
36352;DHT22;22382;44.768;17.206;2023-07-22T14:17:02;30.00;95.60
36352;DHT22;22382;44.768;17.206;2023-07-22T14:19:31;29.60;95.20
36352;DHT22;22382;44.768;17.206;2023-07-22T14:21:58;29.50;95.90
36352;DHT22;22382;44.768;17.206;2023-07-22T14:24:25;29.60;96.20
36352;DHT22;22382;44.768;17.206;2023-07-22T14:26:53;29.60;96.20
36352;DHT22;22382;44.768;17.206;2023-07-22T14:29:20;29.50;96.60
36352;DHT22;22382;44.768;17.206;2023-07-22T14:31:47;29.30;97.20
36352;DHT22;22382;44.768;17.206;2023-07-22T14:34:14;29.50;97.20
36352;DHT22;22382;44.768;17.206;2023-07-22T14:36:41;30.00;96.70
36352;DHT22;22382;44.768;17.206;2023-07-22T14:39:11;30.50;96.00
36352;DHT22;22382;44.768;17.206;2023-07-22T14:41:40;30.60;94.80
36352;DHT22;22382;44.768;17.206;2023-07-22T14:44:07;30.80;94.60
36352;DHT22;22382;44.768;17.206;2023-07-22T14:46:34;30.70;94.40
36352;DHT22;22382;44.768;17.206;2023-07-22T14:49:01;29.90;95.10
36352;DHT22;22382;44.768;17.206;2023-07-22T14:51:29;29.40;96.30
36352;DHT22;22382;44.768;17.206;2023-07-22T14:53:56;29.10;96.60
36352;DHT22;22382;44.768;17.206;2023-07-22T14:56:23;29.20;97.00
36352;DHT22;22382;44.768;17.206;2023-07-22T14:58:50;29.10;96.80
36352;DHT22;22382;44.768;17.206;2023-07-22T15:01:17;29.20;97.40
36352;DHT22;22382;44.768;17.206;2023-07-22T15:03:44;29.10;97.70
36352;DHT22;22382;44.768;17.206;2023-07-22T15:06:12;29.10;97.40
36352;DHT22;22382;44.768;17.206;2023-07-22T15:08:40;29.90;96.70
36352;DHT22;22382;44.768;17.206;2023-07-22T15:11:07;31.70;94.20
36352;DHT22;22382;44.768;17.206;2023-07-22T15:13:34;33.10;92.00
36352;DHT22;22382;44.768;17.206;2023-07-22T15:16:01;32.40;90.60
36352;DHT22;22382;44.768;17.206;2023-07-22T15:18:29;31.40;92.00
36352;DHT22;22382;44.768;17.206;2023-07-22T15:20:56;30.90;92.90
36352;DHT22;22382;44.768;17.206;2023-07-22T15:23:23;30.00;93.80
36352;DHT22;22382;44.768;17.206;2023-07-22T15:25:51;29.60;94.90
36352;DHT22;22382;44.768;17.206;2023-07-22T15:28:18;29.50;95.30
36352;DHT22;22382;44.768;17.206;2023-07-22T15:30:46;29.20;96.00
36352;DHT22;22382;44.768;17.206;2023-07-22T15:33:13;29.30;96.20
36352;DHT22;22382;44.768;17.206;2023-07-22T15:35:40;29.30;96.50
36352;DHT22;22382;44.768;17.206;2023-07-22T15:38:07;28.90;96.80
36352;DHT22;22382;44.768;17.206;2023-07-22T15:40:35;28.90;97.40